Time;durP1;ratioP1;P1;durP2;ratioP2;P2;SDS_P1;SDS_P2;PMS_P1;PMS_P2;Temp;Humidity;BMP_temperature;BMP_pressure;BME280_temperature;BME280_humidity;BME280_pressure;Samples;Min_cycle;Max_cycle;Signal;HPM_P1;HPM_P2
2022/03/10 00:01:55;;;;;;;18.70;7.88;;;-2.10;94.90;;;;;;21001829;28;20039;-61
2022/03/10 00:11:57;;;;;;;16.73;7.20;;;-2.00;94.70;;;;;;21135030;28;20089;-61
2022/03/10 00:21:59;;;;;;;16.38;6.88;;;-2.00;94.80;;;;;;21134410;28;20048;-62
2022/03/10 00:32:02;;;;;;;16.08;6.63;;;-2.10;95.50;;;;;;21133524;28;20074;-62
2022/03/10 00:42:05;;;;;;;21.95;8.02;;;-2.10;95.80;;;;;;21133111;28;20028;-62
2022/03/10 00:52:07;;;;;;;17.92;7.18;;;-2.10;96.40;;;;;;21132291;28;20039;-61
2022/03/10 01:02:10;;;;;;;14.10;6.25;;;-2.00;96.10;;;;;;21131522;28;20085;-59
2022/03/10 01:12:12;;;;;;;11.35;5.13;;;-2.00;95.90;;;;;;21131504;28;20080;-57
2022/03/10 01:22:15;;;;;;;12.50;5.18;;;-1.80;94.90;;;;;;21131246;28;20065;-54
2022/03/10 01:32:18;;;;;;;9.63;3.75;;;-1.90;93.50;;;;;;21130276;28;20043;-56
2022/03/10 01:42:22;;;;;;;10.45;4.55;;;-1.80;92.20;;;;;;21130437;28;20035;-60
2022/03/10 01:52:25;;;;;;;11.02;4.10;;;-2.10;93.20;;;;;;21129174;28;20036;-57
2022/03/10 02:02:28;;;;;;;11.75;5.55;;;-2.20;94.00;;;;;;21129791;28;20080;-55
2022/03/10 02:12:31;;;;;;;13.18;4.88;;;-2.20;94.90;;;;;;21139686;28;20097;-59
2022/03/10 02:22:33;;;;;;;11.85;5.53;;;-2.30;94.80;;;;;;21145335;28;20073;-58
2022/03/10 02:32:36;;;;;;;15.98;6.10;;;-2.30;95.40;;;;;;21144108;28;20088;-58
2022/03/10 02:42:39;;;;;;;14.48;6.10;;;-2.30;96.20;;;;;;21143900;28;20069;-58
2022/03/10 02:52:43;;;;;;;12.65;5.57;;;-2.20;96.10;;;;;;21142512;28;20055;-57
2022/03/10 03:02:46;;;;;;;11.68;5.07;;;-1.90;96.20;;;;;;21141298;28;20043;-59
2022/03/10 03:12:51;;;;;;;14.77;6.10;;;-1.60;94.50;;;;;;21140021;28;20650;-58
2022/03/10 03:22:53;;;;;;;17.25;6.57;;;-1.40;93.10;;;;;;21139612;28;20036;-56
2022/03/10 03:32:55;;;;;;;9.85;3.88;;;-1.40;92.70;;;;;;21138337;28;20436;-59
2022/03/10 03:42:59;;;;;;;14.32;5.20;;;-1.70;93.50;;;;;;21137683;28;20094;-59
2022/03/10 03:53:01;;;;;;;18.38;6.82;;;-1.80;93.60;;;;;;21137654;28;20089;-59
2022/03/10 04:03:09;;;;;;;15.00;5.97;;;-1.60;93.10;;;;;;21136704;28;20039;-57
2022/03/10 04:13:11;;;;;;;10.70;4.80;;;-1.80;93.40;;;;;;21135057;28;20552;-59
2022/03/10 04:23:14;;;;;;;14.95;6.20;;;-2.00;94.10;;;;;;21134635;28;20308;-58
2022/03/10 04:33:17;;;;;;;17.42;7.10;;;-1.80;95.20;;;;;;21133523;28;20035;-57
2022/03/10 04:43:20;;;;;;;15.27;5.85;;;-1.70;95.60;;;;;;21133067;28;20031;-57
2022/03/10 04:53:22;;;;;;;11.75;5.03;;;-1.60;95.60;;;;;;21132645;28;20057;-59
2022/03/10 05:03:25;;;;;;;10.05;3.97;;;-1.70;95.40;;;;;;21132272;28;20084;-57
2022/03/10 05:13:28;;;;;;;7.78;3.13;;;-1.70;94.40;;;;;;21131010;28;20059;-58
2022/03/10 05:23:31;;;;;;;9.23;3.80;;;-1.60;93.50;;;;;;21130841;28;20066;-58
2022/03/10 05:33:34;;;;;;;11.20;5.32;;;-1.80;93.50;;;;;;21131581;28;20032;-58
2022/03/10 05:43:37;;;;;;;12.88;5.55;;;-1.60;93.90;;;;;;21138565;28;20093;-56
2022/03/10 05:53:40;;;;;;;11.85;4.80;;;-1.70;94.30;;;;;;21146602;28;20044;-58
2022/03/10 06:03:42;;;;;;;9.32;3.88;;;-1.70;94.10;;;;;;21146054;28;20483;-57
2022/03/10 06:13:45;;;;;;;7.75;3.55;;;-1.60;94.50;;;;;;21144819;28;20052;-57
2022/03/10 06:23:48;;;;;;;6.97;3.22;;;-1.40;94.10;;;;;;21144794;28;20036;-58
2022/03/10 06:33:51;;;;;;;8.43;3.65;;;-1.10;93.10;;;;;;21142971;28;20035;-59
2022/03/10 06:43:55;;;;;;;8.75;3.17;;;-0.80;92.00;;;;;;21142623;28;20080;-59
2022/03/10 06:53:58;;;;;;;7.90;3.45;;;-0.40;90.60;;;;;;21141650;28;20031;-58
2022/03/10 07:04:01;;;;;;;8.15;3.60;;;0.50;89.70;;;;;;21141028;28;20093;-59
2022/03/10 07:14:03;;;;;;;9.00;3.63;;;0.50;85.90;;;;;;21140227;28;20640;-58
2022/03/10 07:24:06;;;;;;;18.00;6.15;;;1.60;85.20;;;;;;21140084;28;20084;-53
2022/03/10 07:34:08;;;;;;;13.32;5.85;;;2.00;85.30;;;;;;21141207;28;20032;-57
2022/03/10 07:44:12;;;;;;;11.25;5.68;;;2.50;85.40;;;;;;21138865;28;20093;-56
2022/03/10 07:54:14;;;;;;;13.05;6.20;;;3.40;83.40;;;;;;21139133;28;20169;-57
2022/03/10 08:04:17;;;;;;;14.38;6.38;;;4.40;80.70;;;;;;21137813;28;20031;-57
2022/03/10 08:14:19;;;;;;;13.02;5.88;;;5.20;77.40;;;;;;21137857;28;20110;-59
2022/03/10 08:24:22;;;;;;;13.60;6.07;;;5.90;74.40;;;;;;21137045;28;20433;-58
2022/03/10 08:34:24;;;;;;;11.20;5.50;;;6.80;74.10;;;;;;21136574;28;20467;-59
2022/03/10 08:44:27;;;;;;;14.20;6.18;;;7.80;72.00;;;;;;21134524;28;20093;-59
2022/03/10 08:54:30;;;;;;;9.45;4.72;;;8.50;72.90;;;;;;21133487;28;20047;-61
2022/03/10 09:04:32;;;;;;;11.43;5.07;;;9.00;69.90;;;;;;21132841;28;20061;-59
2022/03/10 09:14:35;;;;;;;9.73;4.72;;;9.60;65.30;;;;;;21112955;28;20561;-59
2022/03/10 09:24:37;;;;;;;9.00;4.22;;;9.80;64.80;;;;;;21047327;28;20100;-60
2022/03/10 09:34:40;;;;;;;8.75;4.47;;;9.70;61.70;;;;;;21046785;28;20044;-60
2022/03/10 09:44:45;;;;;;;10.30;5.20;;;9.80;61.70;;;;;;21047086;28;20024;-59
2022/03/10 09:54:48;;;;;;;12.20;5.18;;;10.30;61.40;;;;;;21045770;28;20069;-59
2022/03/10 10:04:51;;;;;;;11.80;6.07;;;10.50;62.80;;;;;;21045450;28;20070;-58
2022/03/10 10:14:55;;;;;;;11.90;5.90;;;11.20;62.10;;;;;;21045404;28;20078;-59
2022/03/10 10:25:02;;;;;;;10.77;5.35;;;11.50;61.20;;;;;;21045070;28;20058;-60
2022/03/10 10:35:08;;;;;;;10.77;5.47;;;11.50;60.40;;;;;;21058463;28;20117;-61
2022/03/10 10:45:37;;;;;;;10.27;5.68;;;11.80;59.20;;;;;;21058832;28;20428;-60
2022/03/10 10:55:41;;;;;;;16.45;8.30;;;12.10;59.70;;;;;;21057821;28;20027;-60
2022/03/10 11:05:44;;;;;;;16.45;8.27;;;12.30;59.40;;;;;;21057099;28;20082;-60
2022/03/10 11:15:48;;;;;;;19.35;9.35;;;12.30;59.50;;;;;;21117431;28;20461;-61
2022/03/10 11:26:30;;;;;;;18.20;9.00;;;12.40;62.20;;;;;;21122935;28;20093;-61
2022/03/10 11:36:33;;;;;;;19.35;9.27;;;12.40;60.00;;;;;;21138907;28;20394;-60
2022/03/10 11:46:57;;;;;;;17.65;9.20;;;12.10;61.80;;;;;;21137683;28;20032;-61
2022/03/10 11:57:05;;;;;;;19.70;10.05;;;11.90;61.40;;;;;;21137175;28;20065;-60
2022/03/10 12:07:16;;;;;;;14.95;8.90;;;12.10;63.70;;;;;;21119462;28;20043;-62
2022/03/10 12:17:44;;;;;;;20.40;10.27;;;12.00;62.80;;;;;;21171579;27;20063;-61
2022/03/10 12:27:51;;;;;;;19.73;10.30;;;12.20;62.60;;;;;;21133831;28;20065;-61
2022/03/10 12:37:55;;;;;;;27.92;14.75;;;12.40;62.70;;;;;;21133942;28;20035;-60
2022/03/10 12:48:15;;;;;;;25.83;13.20;;;12.30;62.10;;;;;;21199882;27;20035;-61
2022/03/10 12:58:28;;;;;;;28.47;14.43;;;11.60;62.60;;;;;;21218218;27;20088;-61
2022/03/10 13:08:31;;;;;;;24.23;13.00;;;11.00;65.30;;;;;;21217008;27;20358;-62
2022/03/10 13:18:44;;;;;;;25.38;13.13;;;11.40;65.50;;;;;;21078914;28;20446;-62
2022/03/10 13:28:47;;;;;;;25.30;12.30;;;11.60;64.50;;;;;;21046619;28;20036;-62
2022/03/10 13:38:50;;;;;;;30.42;14.35;;;11.50;65.90;;;;;;21046515;28;20036;-62
2022/03/10 13:48:54;;;;;;;29.30;14.45;;;11.50;66.40;;;;;;21046774;28;20383;-61
2022/03/10 13:58:57;;;;;;;27.02;14.32;;;11.30;65.00;;;;;;21029505;28;20044;-61
2022/03/10 14:08:59;;;;;;;34.28;15.60;;;10.50;66.70;;;;;;21057097;28;20153;-56
2022/03/10 14:19:05;;;;;;;37.15;16.48;;;9.60;68.50;;;;;;21069340;28;20059;-59
2022/03/10 14:29:10;;;;;;;32.05;15.65;;;9.30;68.50;;;;;;21161683;28;20077;-55
2022/03/10 14:39:12;;;;;;;36.45;16.10;;;8.90;69.40;;;;;;21160752;28;20043;-58
2022/03/10 14:49:15;;;;;;;35.30;16.52;;;8.60;70.10;;;;;;21159250;28;20100;-60
2022/03/10 14:59:19;;;;;;;34.65;16.88;;;8.30;71.20;;;;;;21158722;28;20426;-57
2022/03/10 15:09:21;;;;;;;33.47;16.42;;;8.00;72.70;;;;;;21159158;28;20391;-60
2022/03/10 15:19:23;;;;;;;38.67;18.08;;;7.60;72.80;;;;;;21139486;28;20071;-57
2022/03/10 15:29:28;;;;;;;39.60;18.25;;;7.30;73.30;;;;;;21138956;28;20085;-58
2022/03/10 15:39:31;;;;;;;47.17;17.90;;;7.00;74.40;;;;;;21139017;28;20039;-58
2022/03/10 15:49:35;;;;;;;37.70;19.42;;;6.70;74.60;;;;;;21121020;28;20032;-53
2022/03/10 15:59:38;;;;;;;27.30;12.52;;;6.30;75.20;;;;;;21136752;28;20058;-59
2022/03/10 16:09:40;;;;;;;22.98;10.45;;;5.70;73.60;;;;;;21136207;28;20093;-58
2022/03/10 16:19:43;;;;;;;20.73;9.27;;;4.80;71.40;;;;;;21137328;28;20081;-56
2022/03/10 16:29:46;;;;;;;16.70;9.05;;;4.10;74.50;;;;;;21134090;28;20097;-58
2022/03/10 16:39:49;;;;;;;20.85;8.85;;;3.50;75.60;;;;;;21134072;28;20053;-57
2022/03/10 16:49:52;;;;;;;16.30;7.70;;;3.00;78.60;;;;;;21133127;28;20036;-59
2022/03/10 16:59:57;;;;;;;18.95;8.05;;;2.50;78.00;;;;;;21133845;28;20434;-57
2022/03/10 17:09:59;;;;;;;17.75;7.72;;;2.20;76.90;;;;;;21119382;28;20066;-57
2022/03/10 17:20:03;;;;;;;18.63;8.32;;;1.90;80.80;;;;;;21030735;28;20408;-59
2022/03/10 17:30:06;;;;;;;15.00;6.78;;;1.70;80.60;;;;;;21047211;28;20028;-57
2022/03/10 17:40:10;;;;;;;11.48;5.72;;;1.30;80.40;;;;;;21072915;28;20089;-56
2022/03/10 17:50:15;;;;;;;12.98;6.20;;;1.10;78.50;;;;;;21064457;28;20058;-57
2022/03/10 18:00:18;;;;;;;14.63;6.35;;;0.90;79.20;;;;;;21062051;28;20066;-58
2022/03/10 18:10:21;;;;;;;13.55;6.82;;;0.80;79.30;;;;;;21061393;28;20445;-57
2022/03/10 18:20:24;;;;;;;12.15;6.00;;;0.70;80.10;;;;;;21060795;28;20052;-56
2022/03/10 18:30:26;;;;;;;14.27;5.97;;;0.70;75.90;;;;;;21060681;28;20031;-57
2022/03/10 18:40:29;;;;;;;16.85;7.03;;;0.70;75.20;;;;;;21059225;28;20058;-56
2022/03/10 18:50:32;;;;;;;12.07;5.43;;;0.50;77.60;;;;;;21057794;28;20040;-59
2022/03/10 19:00:35;;;;;;;13.07;5.88;;;0.30;77.30;;;;;;21057542;28;20035;-54
2022/03/10 19:10:38;;;;;;;16.77;7.88;;;0.30;78.40;;;;;;21074899;28;20036;-56
2022/03/10 19:20:41;;;;;;;20.67;8.20;;;0.20;79.50;;;;;;21140549;28;20043;-58
2022/03/10 19:30:45;;;;;;;23.15;10.02;;;0.10;82.30;;;;;;21122894;28;20547;-58
2022/03/10 19:40:48;;;;;;;23.80;10.88;;;0.20;84.50;;;;;;21138583;28;20036;-52
2022/03/10 19:50:53;;;;;;;25.95;11.55;;;0.10;86.60;;;;;;21121464;28;20114;-57
2022/03/10 20:00:56;;;;;;;29.10;12.50;;;-0.10;87.90;;;;;;21107075;28;20540;-66
2022/03/10 20:10:58;;;;;;;26.08;12.07;;;-0.10;89.00;;;;;;21052260;28;20444;-58
2022/03/10 20:21:02;;;;;;;28.52;12.15;;;-0.30;90.20;;;;;;21124464;28;20498;-60
2022/03/10 20:31:05;;;;;;;26.17;12.55;;;-0.50;90.70;;;;;;21136554;28;20031;-57
2022/03/10 20:41:08;;;;;;;32.78;13.38;;;-0.60;91.20;;;;;;21069320;28;20475;-54
2022/03/10 20:51:13;;;;;;;38.05;15.32;;;-0.70;92.20;;;;;;21052432;28;20479;-57
2022/03/10 21:01:17;;;;;;;39.35;17.60;;;-0.80;93.30;;;;;;21051171;28;20101;-53
2022/03/10 21:11:20;;;;;;;37.83;16.98;;;-1.00;94.60;;;;;;21074002;28;20119;-52
2022/03/10 21:21:23;;;;;;;39.20;17.25;;;-1.00;95.40;;;;;;21057663;28;20333;-52
2022/03/10 21:31:27;;;;;;;47.40;19.95;;;-1.10;96.20;;;;;;21049783;28;20105;-53
2022/03/10 21:41:31;;;;;;;48.13;17.33;;;-1.20;96.80;;;;;;21048708;28;20036;-52
2022/03/10 21:51:36;;;;;;;47.42;19.63;;;-1.30;97.50;;;;;;21048035;28;20040;-51
2022/03/10 22:01:38;;;;;;;45.15;19.23;;;-1.30;98.80;;;;;;21048462;28;20032;-52
2022/03/10 22:11:42;;;;;;;41.15;18.35;;;-1.30;99.70;;;;;;21046921;28;20044;-53
2022/03/10 22:21:45;;;;;;;43.38;20.23;;;-1.10;99.80;;;;;;21047169;28;20056;-51
2022/03/10 22:31:49;;;;;;;51.60;20.90;;;-1.10;99.90;;;;;;21061252;28;20491;-53
2022/03/10 22:41:51;;;;;;;48.38;20.27;;;-1.30;99.90;;;;;;21062534;28;20032;-52
2022/03/10 23:02:15;;;;;;;52.35;20.60;;;-1.10;99.90;;;;;;21061069;28;20048;-56
2022/03/10 23:12:18;;;;;;;46.40;18.98;;;-1.10;99.90;;;;;;21060239;28;20497;-51
2022/03/10 23:22:21;;;;;;;41.65;17.85;;;-0.90;99.90;;;;;;21058722;28;20055;-52
2022/03/10 23:32:24;;;;;;;40.13;17.05;;;-0.90;99.90;;;;;;21058502;28;20028;-52
2022/03/10 23:42:26;;;;;;;36.20;16.05;;;-1.10;99.90;;;;;;21056931;28;20036;-52
2022/03/10 23:52:29;;;;;;;31.20;14.02;;;-1.20;99.90;;;;;;21057265;28;20089;-54
